Terminal Aerodrome Forecast
Issued by NWS

Home | Current Version | Previous Version | Text Only | Print | Product List | Glossary On
Versions: 1 2 3 4 5 6 7 8 9 10 11 12 13 14 15 16 17 18 19 20 21 22 23
920
FTUS46 KMFR 242320
TAFOTH
TAF
KOTH 242320Z 2500/2524 29010KT P6SM -SHRA SCT015 OVC030
      TEMPO 2500/2503 BKN015
     FM250300 32008KT P6SM -SHRA SCT008 OVC015
     FM250500 VRB03KT P6SM OVC015
     FM250800 14005KT P6SM OVC012
     FM251800 16008KT P6SM -RA SCT015 OVC030=

USA.gov is the U.S. government's official web portal to all federal, state and local government web resources and services.